sensor_id;sensor_type;location;lat;lon;timestamp;temperature;humidity
52743;DHT22;55583;53.012;6.556;2023-09-30T00:02:06;10.70;99.90
52743;DHT22;55583;53.012;6.556;2023-09-30T00:04:32;10.70;99.90
52743;DHT22;55583;53.012;6.556;2023-09-30T00:06:58;10.70;99.90
52743;DHT22;55583;53.012;6.556;2023-09-30T00:09:24;11.50;99.90
52743;DHT22;55583;53.012;6.556;2023-09-30T00:11:50;10.60;99.90
52743;DHT22;55583;53.012;6.556;2023-09-30T00:14:15;10.60;99.90
52743;DHT22;55583;53.012;6.556;2023-09-30T00:16:42;10.60;99.90
52743;DHT22;55583;53.012;6.556;2023-09-30T00:19:08;10.70;99.90
52743;DHT22;55583;53.012;6.556;2023-09-30T00:21:35;10.60;99.90
52743;DHT22;55583;53.012;6.556;2023-09-30T00:24:00;10.50;99.90
52743;DHT22;55583;53.012;6.556;2023-09-30T00:26:26;10.50;99.90
52743;DHT22;55583;53.012;6.556;2023-09-30T00:28:51;10.60;99.90
52743;DHT22;55583;53.012;6.556;2023-09-30T00:31:17;10.60;99.90
52743;DHT22;55583;53.012;6.556;2023-09-30T00:33:42;10.60;99.90
52743;DHT22;55583;53.012;6.556;2023-09-30T00:36:08;10.60;99.90
52743;DHT22;55583;53.012;6.556;2023-09-30T00:38:34;10.60;99.90
52743;DHT22;55583;53.012;6.556;2023-09-30T00:41:00;10.60;99.90
52743;DHT22;55583;53.012;6.556;2023-09-30T00:43:25;10.60;99.90
52743;DHT22;55583;53.012;6.556;2023-09-30T00:45:51;10.60;99.90
52743;DHT22;55583;53.012;6.556;2023-09-30T00:48:22;10.60;99.90
52743;DHT22;55583;53.012;6.556;2023-09-30T00:50:47;10.90;99.90
52743;DHT22;55583;53.012;6.556;2023-09-30T00:53:13;10.60;99.90
52743;DHT22;55583;53.012;6.556;2023-09-30T00:55:39;10.60;99.90
52743;DHT22;55583;53.012;6.556;2023-09-30T00:58:05;10.60;99.90
52743;DHT22;55583;53.012;6.556;2023-09-30T01:00:31;10.60;99.90
52743;DHT22;55583;53.012;6.556;2023-09-30T01:02:57;10.60;99.90
52743;DHT22;55583;53.012;6.556;2023-09-30T01:05:25;10.60;99.90
52743;DHT22;55583;53.012;6.556;2023-09-30T01:07:50;10.60;99.90
52743;DHT22;55583;53.012;6.556;2023-09-30T01:10:16;10.60;99.90
52743;DHT22;55583;53.012;6.556;2023-09-30T01:12:41;10.60;99.90
52743;DHT22;55583;53.012;6.556;2023-09-30T01:15:08;10.80;99.90
52743;DHT22;55583;53.012;6.556;2023-09-30T01:17:33;10.60;99.90
52743;DHT22;55583;53.012;6.556;2023-09-30T01:19:59;10.60;99.90
52743;DHT22;55583;53.012;6.556;2023-09-30T01:22:25;10.70;99.90
52743;DHT22;55583;53.012;6.556;2023-09-30T01:24:53;10.70;99.90
52743;DHT22;55583;53.012;6.556;2023-09-30T01:27:18;10.70;99.90
52743;DHT22;55583;53.012;6.556;2023-09-30T01:29:45;10.80;99.90
52743;DHT22;55583;53.012;6.556;2023-09-30T01:32:10;10.60;99.90
52743;DHT22;55583;53.012;6.556;2023-09-30T01:34:37;10.60;99.90
52743;DHT22;55583;53.012;6.556;2023-09-30T01:37:02;10.60;99.90
52743;DHT22;55583;53.012;6.556;2023-09-30T01:39:28;10.70;99.90
52743;DHT22;55583;53.012;6.556;2023-09-30T01:41:55;10.60;99.90
52743;DHT22;55583;53.012;6.556;2023-09-30T01:44:20;10.80;99.90
52743;DHT22;55583;53.012;6.556;2023-09-30T01:46:46;11.30;99.90
52743;DHT22;55583;53.012;6.556;2023-09-30T01:49:11;11.30;99.90
52743;DHT22;55583;53.012;6.556;2023-09-30T01:51:37;10.90;99.90
52743;DHT22;55583;53.012;6.556;2023-09-30T01:54:02;11.00;99.90
52743;DHT22;55583;53.012;6.556;2023-09-30T01:56:28;11.00;99.90
52743;DHT22;55583;53.012;6.556;2023-09-30T01:58:55;11.00;99.90
52743;DHT22;55583;53.012;6.556;2023-09-30T02:01:21;11.60;99.90
52743;DHT22;55583;53.012;6.556;2023-09-30T02:03:46;11.10;99.90
52743;DHT22;55583;53.012;6.556;2023-09-30T02:06:12;11.10;99.90
52743;DHT22;55583;53.012;6.556;2023-09-30T02:08:38;11.10;99.90
52743;DHT22;55583;53.012;6.556;2023-09-30T02:11:03;11.20;99.90
52743;DHT22;55583;53.012;6.556;2023-09-30T02:13:33;11.00;99.90
52743;DHT22;55583;53.012;6.556;2023-09-30T02:16:00;10.90;99.90
52743;DHT22;55583;53.012;6.556;2023-09-30T02:18:26;11.00;99.90
52743;DHT22;55583;53.012;6.556;2023-09-30T02:20:51;11.00;99.90
52743;DHT22;55583;53.012;6.556;2023-09-30T02:23:18;11.00;99.90
52743;DHT22;55583;53.012;6.556;2023-09-30T02:25:44;11.10;99.90
52743;DHT22;55583;53.012;6.556;2023-09-30T02:28:10;11.20;99.90
52743;DHT22;55583;53.012;6.556;2023-09-30T02:30:36;11.30;99.90
52743;DHT22;55583;53.012;6.556;2023-09-30T02:33:02;11.20;99.90
52743;DHT22;55583;53.012;6.556;2023-09-30T02:35:28;11.30;99.90
52743;DHT22;55583;53.012;6.556;2023-09-30T02:37:54;11.40;99.90
52743;DHT22;55583;53.012;6.556;2023-09-30T02:40:19;11.40;99.90
52743;DHT22;55583;53.012;6.556;2023-09-30T02:42:45;11.40;99.90
52743;DHT22;55583;53.012;6.556;2023-09-30T02:45:11;11.40;99.90
52743;DHT22;55583;53.012;6.556;2023-09-30T02:47:37;11.50;99.90
52743;DHT22;55583;53.012;6.556;2023-09-30T02:50:04;11.50;99.90
52743;DHT22;55583;53.012;6.556;2023-09-30T02:52:30;11.50;99.90
52743;DHT22;55583;53.012;6.556;2023-09-30T02:54:56;11.60;99.90
52743;DHT22;55583;53.012;6.556;2023-09-30T02:57:23;11.60;99.90
52743;DHT22;55583;53.012;6.556;2023-09-30T02:59:48;11.60;99.90
52743;DHT22;55583;53.012;6.556;2023-09-30T03:02:14;11.60;99.90
52743;DHT22;55583;53.012;6.556;2023-09-30T03:04:40;11.60;99.90
52743;DHT22;55583;53.012;6.556;2023-09-30T03:07:07;11.60;99.90
52743;DHT22;55583;53.012;6.556;2023-09-30T03:09:34;11.60;99.90
52743;DHT22;55583;53.012;6.556;2023-09-30T03:11:59;11.60;99.90
52743;DHT22;55583;53.012;6.556;2023-09-30T03:14:25;11.60;99.90
52743;DHT22;55583;53.012;6.556;2023-09-30T03:16:51;11.60;99.90
52743;DHT22;55583;53.012;6.556;2023-09-30T03:19:16;11.50;99.90
52743;DHT22;55583;53.012;6.556;2023-09-30T03:21:42;11.40;99.90
52743;DHT22;55583;53.012;6.556;2023-09-30T03:24:07;11.40;99.90
52743;DHT22;55583;53.012;6.556;2023-09-30T03:26:33;11.40;99.90
52743;DHT22;55583;53.012;6.556;2023-09-30T03:28:59;11.40;99.90
52743;DHT22;55583;53.012;6.556;2023-09-30T03:31:25;11.40;99.90
52743;DHT22;55583;53.012;6.556;2023-09-30T03:33:50;11.40;99.90
52743;DHT22;55583;53.012;6.556;2023-09-30T03:36:22;11.50;99.90
52743;DHT22;55583;53.012;6.556;2023-09-30T03:38:51;11.50;99.90
52743;DHT22;55583;53.012;6.556;2023-09-30T03:41:19;11.60;99.90
52743;DHT22;55583;53.012;6.556;2023-09-30T03:43:45;11.60;99.90
52743;DHT22;55583;53.012;6.556;2023-09-30T03:46:10;11.70;99.90
52743;DHT22;55583;53.012;6.556;2023-09-30T03:48:37;11.50;99.90
52743;DHT22;55583;53.012;6.556;2023-09-30T03:51:14;11.50;99.90
52743;DHT22;55583;53.012;6.556;2023-09-30T03:53:43;11.40;99.90
52743;DHT22;55583;53.012;6.556;2023-09-30T03:56:11;11.30;99.90
52743;DHT22;55583;53.012;6.556;2023-09-30T03:58:39;11.30;99.90
52743;DHT22;55583;53.012;6.556;2023-09-30T04:01:06;11.30;99.90
52743;DHT22;55583;53.012;6.556;2023-09-30T04:03:33;11.20;99.90
52743;DHT22;55583;53.012;6.556;2023-09-30T04:05:59;11.10;99.90
52743;DHT22;55583;53.012;6.556;2023-09-30T04:08:24;11.10;99.90
52743;DHT22;55583;53.012;6.556;2023-09-30T04:10:50;11.00;99.90
52743;DHT22;55583;53.012;6.556;2023-09-30T04:13:15;11.10;99.90
52743;DHT22;55583;53.012;6.556;2023-09-30T04:15:42;11.30;99.90
52743;DHT22;55583;53.012;6.556;2023-09-30T04:18:10;11.00;99.90
52743;DHT22;55583;53.012;6.556;2023-09-30T04:20:36;10.90;99.90
52743;DHT22;55583;53.012;6.556;2023-09-30T04:23:05;10.90;99.90
52743;DHT22;55583;53.012;6.556;2023-09-30T04:25:32;10.90;99.90
52743;DHT22;55583;53.012;6.556;2023-09-30T04:27:57;10.90;99.90
52743;DHT22;55583;53.012;6.556;2023-09-30T04:30:23;10.90;99.90
52743;DHT22;55583;53.012;6.556;2023-09-30T04:32:48;10.90;99.90
52743;DHT22;55583;53.012;6.556;2023-09-30T04:35:14;10.90;99.90
52743;DHT22;55583;53.012;6.556;2023-09-30T04:37:40;10.90;99.90
52743;DHT22;55583;53.012;6.556;2023-09-30T04:40:07;10.80;99.90
52743;DHT22;55583;53.012;6.556;2023-09-30T04:42:41;10.80;99.90
52743;DHT22;55583;53.012;6.556;2023-09-30T04:45:06;10.80;99.90
52743;DHT22;55583;53.012;6.556;2023-09-30T04:47:33;10.80;99.90
52743;DHT22;55583;53.012;6.556;2023-09-30T04:49:58;10.80;99.90
52743;DHT22;55583;53.012;6.556;2023-09-30T04:52:24;10.70;99.90
52743;DHT22;55583;53.012;6.556;2023-09-30T04:54:53;10.80;99.90
52743;DHT22;55583;53.012;6.556;2023-09-30T04:57:18;10.80;99.90
52743;DHT22;55583;53.012;6.556;2023-09-30T04:59:44;10.70;99.90
52743;DHT22;55583;53.012;6.556;2023-09-30T05:02:11;10.70;99.90
52743;DHT22;55583;53.012;6.556;2023-09-30T05:04:40;10.70;99.90
52743;DHT22;55583;53.012;6.556;2023-09-30T05:07:05;10.80;99.90
52743;DHT22;55583;53.012;6.556;2023-09-30T05:09:31;10.80;99.90
52743;DHT22;55583;53.012;6.556;2023-09-30T05:11:57;10.80;99.90
52743;DHT22;55583;53.012;6.556;2023-09-30T05:14:22;10.70;99.90
52743;DHT22;55583;53.012;6.556;2023-09-30T05:16:48;10.70;99.90
52743;DHT22;55583;53.012;6.556;2023-09-30T05:19:13;10.80;99.90
52743;DHT22;55583;53.012;6.556;2023-09-30T05:21:39;10.80;99.90
52743;DHT22;55583;53.012;6.556;2023-09-30T05:24:04;10.70;99.90
52743;DHT22;55583;53.012;6.556;2023-09-30T05:26:31;10.70;99.90
52743;DHT22;55583;53.012;6.556;2023-09-30T05:28:56;10.70;99.90
52743;DHT22;55583;53.012;6.556;2023-09-30T05:31:22;10.70;99.90
52743;DHT22;55583;53.012;6.556;2023-09-30T05:33:47;10.60;99.90
52743;DHT22;55583;53.012;6.556;2023-09-30T05:36:13;10.60;99.90
52743;DHT22;55583;53.012;6.556;2023-09-30T05:38:39;10.50;99.90
52743;DHT22;55583;53.012;6.556;2023-09-30T05:41:04;10.50;99.90
52743;DHT22;55583;53.012;6.556;2023-09-30T05:43:31;10.90;99.90
52743;DHT22;55583;53.012;6.556;2023-09-30T05:45:57;10.60;99.90
52743;DHT22;55583;53.012;6.556;2023-09-30T05:48:23;10.70;99.90
52743;DHT22;55583;53.012;6.556;2023-09-30T05:50:49;10.60;99.90
52743;DHT22;55583;53.012;6.556;2023-09-30T05:53:15;10.70;99.90
52743;DHT22;55583;53.012;6.556;2023-09-30T05:55:40;10.70;99.90
52743;DHT22;55583;53.012;6.556;2023-09-30T05:58:09;10.70;99.90
52743;DHT22;55583;53.012;6.556;2023-09-30T06:00:34;10.70;99.90
52743;DHT22;55583;53.012;6.556;2023-09-30T06:03:00;10.70;99.90
52743;DHT22;55583;53.012;6.556;2023-09-30T06:05:26;10.70;99.90
52743;DHT22;55583;53.012;6.556;2023-09-30T06:07:54;10.70;99.90
52743;DHT22;55583;53.012;6.556;2023-09-30T06:10:20;10.60;99.90
52743;DHT22;55583;53.012;6.556;2023-09-30T06:12:46;10.40;99.90
52743;DHT22;55583;53.012;6.556;2023-09-30T06:15:13;10.60;99.90
52743;DHT22;55583;53.012;6.556;2023-09-30T06:17:39;10.70;99.90
52743;DHT22;55583;53.012;6.556;2023-09-30T06:20:05;10.60;99.90
52743;DHT22;55583;53.012;6.556;2023-09-30T06:22:34;10.60;99.90
52743;DHT22;55583;53.012;6.556;2023-09-30T06:25:00;10.60;99.90
52743;DHT22;55583;53.012;6.556;2023-09-30T06:27:25;10.60;99.90
52743;DHT22;55583;53.012;6.556;2023-09-30T06:29:51;10.60;99.90
52743;DHT22;55583;53.012;6.556;2023-09-30T06:32:16;10.60;99.90
52743;DHT22;55583;53.012;6.556;2023-09-30T06:34:42;10.70;99.90
52743;DHT22;55583;53.012;6.556;2023-09-30T06:37:08;10.70;99.90
52743;DHT22;55583;53.012;6.556;2023-09-30T06:39:33;10.70;99.90
52743;DHT22;55583;53.012;6.556;2023-09-30T06:41:59;10.70;99.90
52743;DHT22;55583;53.012;6.556;2023-09-30T06:44:24;10.80;99.90
52743;DHT22;55583;53.012;6.556;2023-09-30T06:46:50;10.80;99.90
52743;DHT22;55583;53.012;6.556;2023-09-30T06:49:16;10.90;99.90
52743;DHT22;55583;53.012;6.556;2023-09-30T06:51:42;10.90;99.90
52743;DHT22;55583;53.012;6.556;2023-09-30T06:54:07;11.00;99.90
52743;DHT22;55583;53.012;6.556;2023-09-30T06:56:33;11.00;99.90
52743;DHT22;55583;53.012;6.556;2023-09-30T06:58:58;11.10;99.90
52743;DHT22;55583;53.012;6.556;2023-09-30T07:01:24;11.10;99.90
52743;DHT22;55583;53.012;6.556;2023-09-30T07:03:50;11.20;99.90
52743;DHT22;55583;53.012;6.556;2023-09-30T07:06:23;11.40;99.90
52743;DHT22;55583;53.012;6.556;2023-09-30T07:08:49;11.30;99.90
52743;DHT22;55583;53.012;6.556;2023-09-30T07:11:14;11.40;99.90
52743;DHT22;55583;53.012;6.556;2023-09-30T07:13:40;11.50;99.90
52743;DHT22;55583;53.012;6.556;2023-09-30T07:16:05;11.50;99.90
52743;DHT22;55583;53.012;6.556;2023-09-30T07:18:31;11.60;99.90
52743;DHT22;55583;53.012;6.556;2023-09-30T07:20:57;11.70;99.90
52743;DHT22;55583;53.012;6.556;2023-09-30T07:23:22;11.80;99.90
52743;DHT22;55583;53.012;6.556;2023-09-30T07:25:48;11.90;99.90
52743;DHT22;55583;53.012;6.556;2023-09-30T07:28:14;11.90;99.90
52743;DHT22;55583;53.012;6.556;2023-09-30T07:30:39;12.00;99.90
52743;DHT22;55583;53.012;6.556;2023-09-30T07:33:05;12.10;99.90
52743;DHT22;55583;53.012;6.556;2023-09-30T07:35:31;12.20;99.90
52743;DHT22;55583;53.012;6.556;2023-09-30T07:37:57;12.30;99.90
52743;DHT22;55583;53.012;6.556;2023-09-30T07:40:23;12.40;99.90
52743;DHT22;55583;53.012;6.556;2023-09-30T07:42:48;13.00;99.90
52743;DHT22;55583;53.012;6.556;2023-09-30T07:45:15;12.50;99.90
52743;DHT22;55583;53.012;6.556;2023-09-30T07:47:44;12.80;99.90
52743;DHT22;55583;53.012;6.556;2023-09-30T07:50:11;12.70;99.90
52743;DHT22;55583;53.012;6.556;2023-09-30T07:52:38;12.80;99.90
52743;DHT22;55583;53.012;6.556;2023-09-30T07:55:04;12.80;99.90
52743;DHT22;55583;53.012;6.556;2023-09-30T07:57:30;12.90;99.90
52743;DHT22;55583;53.012;6.556;2023-09-30T07:59:56;13.00;99.90
52743;DHT22;55583;53.012;6.556;2023-09-30T08:02:21;13.20;99.90
52743;DHT22;55583;53.012;6.556;2023-09-30T08:04:48;13.40;99.90
52743;DHT22;55583;53.012;6.556;2023-09-30T08:07:13;13.30;99.90
52743;DHT22;55583;53.012;6.556;2023-09-30T08:09:39;13.60;99.90
52743;DHT22;55583;53.012;6.556;2023-09-30T08:12:04;13.60;99.90
52743;DHT22;55583;53.012;6.556;2023-09-30T08:14:30;13.70;99.90
52743;DHT22;55583;53.012;6.556;2023-09-30T08:16:56;13.90;99.90
52743;DHT22;55583;53.012;6.556;2023-09-30T08:19:21;14.10;99.90
52743;DHT22;55583;53.012;6.556;2023-09-30T08:21:47;14.30;99.90
52743;DHT22;55583;53.012;6.556;2023-09-30T08:24:13;14.40;99.90
52743;DHT22;55583;53.012;6.556;2023-09-30T08:26:38;14.50;99.90
52743;DHT22;55583;53.012;6.556;2023-09-30T08:29:04;14.50;99.90
52743;DHT22;55583;53.012;6.556;2023-09-30T08:31:29;14.60;99.90
52743;DHT22;55583;53.012;6.556;2023-09-30T08:33:55;14.70;99.90
52743;DHT22;55583;53.012;6.556;2023-09-30T08:36:20;14.70;99.90
52743;DHT22;55583;53.012;6.556;2023-09-30T08:38:46;14.80;99.90
52743;DHT22;55583;53.012;6.556;2023-09-30T08:41:11;14.90;99.90
52743;DHT22;55583;53.012;6.556;2023-09-30T08:43:40;15.00;99.90
52743;DHT22;55583;53.012;6.556;2023-09-30T08:46:06;15.10;99.90
52743;DHT22;55583;53.012;6.556;2023-09-30T08:48:32;15.20;99.90
52743;DHT22;55583;53.012;6.556;2023-09-30T08:50:58;15.30;99.90
52743;DHT22;55583;53.012;6.556;2023-09-30T08:53:25;15.50;99.90
52743;DHT22;55583;53.012;6.556;2023-09-30T08:55:53;15.60;99.90
52743;DHT22;55583;53.012;6.556;2023-09-30T08:58:24;15.60;99.90
52743;DHT22;55583;53.012;6.556;2023-09-30T09:00:51;15.80;99.90
52743;DHT22;55583;53.012;6.556;2023-09-30T09:03:20;15.90;99.90
52743;DHT22;55583;53.012;6.556;2023-09-30T09:05:46;16.10;99.90
52743;DHT22;55583;53.012;6.556;2023-09-30T09:08:12;16.30;99.90
52743;DHT22;55583;53.012;6.556;2023-09-30T09:10:47;16.50;99.90
52743;DHT22;55583;53.012;6.556;2023-09-30T09:13:18;16.60;99.90
52743;DHT22;55583;53.012;6.556;2023-09-30T09:15:44;16.70;99.90
52743;DHT22;55583;53.012;6.556;2023-09-30T09:18:09;16.80;99.90
52743;DHT22;55583;53.012;6.556;2023-09-30T09:20:36;16.90;99.90
52743;DHT22;55583;53.012;6.556;2023-09-30T09:23:02;17.00;99.90
52743;DHT22;55583;53.012;6.556;2023-09-30T09:25:33;17.20;99.90
52743;DHT22;55583;53.012;6.556;2023-09-30T09:28:03;17.70;99.90
52743;DHT22;55583;53.012;6.556;2023-09-30T09:30:28;18.40;99.90
52743;DHT22;55583;53.012;6.556;2023-09-30T09:35:20;19.40;99.90
52743;DHT22;55583;53.012;6.556;2023-09-30T09:40:25;20.60;84.30
52743;DHT22;55583;53.012;6.556;2023-09-30T09:42:50;21.10;87.40
52743;DHT22;55583;53.012;6.556;2023-09-30T09:45:19;21.70;99.90
52743;DHT22;55583;53.012;6.556;2023-09-30T09:47:46;22.70;1.00
52743;DHT22;55583;53.012;6.556;2023-09-30T09:50:12;23.90;99.90
52743;DHT22;55583;53.012;6.556;2023-09-30T09:52:38;25.00;99.90
52743;DHT22;55583;53.012;6.556;2023-09-30T09:55:05;25.90;99.90
52743;DHT22;55583;53.012;6.556;2023-09-30T09:57:31;26.60;99.90
52743;DHT22;55583;53.012;6.556;2023-09-30T09:59:57;27.40;99.90
52743;DHT22;55583;53.012;6.556;2023-09-30T10:02:23;27.50;99.90
52743;DHT22;55583;53.012;6.556;2023-09-30T10:04:50;26.90;99.90
52743;DHT22;55583;53.012;6.556;2023-09-30T10:07:22;25.80;99.90
52743;DHT22;55583;53.012;6.556;2023-09-30T10:09:50;24.90;99.90
52743;DHT22;55583;53.012;6.556;2023-09-30T10:12:18;24.20;99.90
52743;DHT22;55583;53.012;6.556;2023-09-30T10:14:43;24.10;99.90
52743;DHT22;55583;53.012;6.556;2023-09-30T10:17:09;25.00;99.90
52743;DHT22;55583;53.012;6.556;2023-09-30T10:19:35;26.00;99.90
52743;DHT22;55583;53.012;6.556;2023-09-30T10:24:45;27.20;99.90
52743;DHT22;55583;53.012;6.556;2023-09-30T10:35:11;29.60;29.20
52743;DHT22;55583;53.012;6.556;2023-09-30T10:37:37;29.80;99.90
52743;DHT22;55583;53.012;6.556;2023-09-30T10:40:03;30.10;99.90
52743;DHT22;55583;53.012;6.556;2023-09-30T10:42:48;30.40;99.90
52743;DHT22;55583;53.012;6.556;2023-09-30T10:45:41;30.60;99.90
52743;DHT22;55583;53.012;6.556;2023-09-30T10:50:51;30.90;99.90
52743;DHT22;55583;53.012;6.556;2023-09-30T10:53:17;30.70;99.90
52743;DHT22;55583;53.012;6.556;2023-09-30T10:55:46;31.00;99.90
52743;DHT22;55583;53.012;6.556;2023-09-30T10:58:15;31.20;99.90
52743;DHT22;55583;53.012;6.556;2023-09-30T11:00:53;31.50;99.90
52743;DHT22;55583;53.012;6.556;2023-09-30T11:03:19;31.40;99.90
52743;DHT22;55583;53.012;6.556;2023-09-30T11:05:47;30.50;99.90
52743;DHT22;55583;53.012;6.556;2023-09-30T11:08:13;29.50;99.90
52743;DHT22;55583;53.012;6.556;2023-09-30T11:10:46;28.80;99.90
52743;DHT22;55583;53.012;6.556;2023-09-30T11:13:12;28.20;99.90
52743;DHT22;55583;53.012;6.556;2023-09-30T11:15:37;27.60;99.90
52743;DHT22;55583;53.012;6.556;2023-09-30T11:18:18;27.00;99.90
52743;DHT22;55583;53.012;6.556;2023-09-30T11:20:44;26.40;99.90
52743;DHT22;55583;53.012;6.556;2023-09-30T11:23:11;25.50;99.90
52743;DHT22;55583;53.012;6.556;2023-09-30T11:25:37;24.80;99.90
52743;DHT22;55583;53.012;6.556;2023-09-30T11:28:16;24.40;99.90
52743;DHT22;55583;53.012;6.556;2023-09-30T11:30:57;24.60;99.90
52743;DHT22;55583;53.012;6.556;2023-09-30T11:33:22;24.50;99.90
52743;DHT22;55583;53.012;6.556;2023-09-30T11:35:59;24.10;99.90
52743;DHT22;55583;53.012;6.556;2023-09-30T11:38:26;23.80;99.90
52743;DHT22;55583;53.012;6.556;2023-09-30T11:41:02;24.20;99.90
52743;DHT22;55583;53.012;6.556;2023-09-30T11:43:30;25.10;99.90
52743;DHT22;55583;53.012;6.556;2023-09-30T11:46:06;25.70;99.90
52743;DHT22;55583;53.012;6.556;2023-09-30T11:48:34;26.10;99.90
52743;DHT22;55583;53.012;6.556;2023-09-30T11:51:00;26.50;99.90
52743;DHT22;55583;53.012;6.556;2023-09-30T11:53:30;27.10;99.90
52743;DHT22;55583;53.012;6.556;2023-09-30T11:55:57;27.90;99.90
52743;DHT22;55583;53.012;6.556;2023-09-30T11:58:25;28.20;99.90
52743;DHT22;55583;53.012;6.556;2023-09-30T12:00:53;28.30;99.90
52743;DHT22;55583;53.012;6.556;2023-09-30T12:03:18;28.70;99.90
52743;DHT22;55583;53.012;6.556;2023-09-30T12:05:45;29.10;99.90
52743;DHT22;55583;53.012;6.556;2023-09-30T12:08:11;29.20;99.90
52743;DHT22;55583;53.012;6.556;2023-09-30T12:10:37;29.50;99.90
52743;DHT22;55583;53.012;6.556;2023-09-30T12:13:02;29.60;99.90
52743;DHT22;55583;53.012;6.556;2023-09-30T12:15:28;30.00;99.90
52743;DHT22;55583;53.012;6.556;2023-09-30T12:17:54;30.30;99.90
52743;DHT22;55583;53.012;6.556;2023-09-30T12:20:19;30.40;99.90
52743;DHT22;55583;53.012;6.556;2023-09-30T12:22:46;30.30;99.90
52743;DHT22;55583;53.012;6.556;2023-09-30T12:25:11;30.30;99.90
52743;DHT22;55583;53.012;6.556;2023-09-30T12:27:37;29.90;99.90
52743;DHT22;55583;53.012;6.556;2023-09-30T12:30:05;29.40;99.90
52743;DHT22;55583;53.012;6.556;2023-09-30T12:32:32;29.60;99.90
52743;DHT22;55583;53.012;6.556;2023-09-30T12:34:57;29.20;99.90
52743;DHT22;55583;53.012;6.556;2023-09-30T12:37:23;28.90;99.90
52743;DHT22;55583;53.012;6.556;2023-09-30T12:39:48;28.20;99.90
52743;DHT22;55583;53.012;6.556;2023-09-30T12:42:14;28.00;99.90
52743;DHT22;55583;53.012;6.556;2023-09-30T12:44:41;28.00;99.90
52743;DHT22;55583;53.012;6.556;2023-09-30T12:47:06;28.40;99.90
52743;DHT22;55583;53.012;6.556;2023-09-30T12:49:32;28.60;99.90
52743;DHT22;55583;53.012;6.556;2023-09-30T12:51:57;28.30;99.90
52743;DHT22;55583;53.012;6.556;2023-09-30T12:54:24;27.70;99.90
52743;DHT22;55583;53.012;6.556;2023-09-30T12:56:50;27.10;99.90
52743;DHT22;55583;53.012;6.556;2023-09-30T12:59:16;26.60;99.90
52743;DHT22;55583;53.012;6.556;2023-09-30T13:01:43;26.00;99.90
52743;DHT22;55583;53.012;6.556;2023-09-30T13:04:09;25.70;99.90
52743;DHT22;55583;53.012;6.556;2023-09-30T13:06:34;25.60;99.90
52743;DHT22;55583;53.012;6.556;2023-09-30T13:09:01;25.50;99.90
52743;DHT22;55583;53.012;6.556;2023-09-30T13:11:29;25.50;99.90
52743;DHT22;55583;53.012;6.556;2023-09-30T13:13:54;25.50;99.90
52743;DHT22;55583;53.012;6.556;2023-09-30T13:16:20;25.60;99.90
52743;DHT22;55583;53.012;6.556;2023-09-30T13:18:46;25.60;99.90
52743;DHT22;55583;53.012;6.556;2023-09-30T13:21:11;25.40;99.90
52743;DHT22;55583;53.012;6.556;2023-09-30T13:23:37;25.40;99.90
52743;DHT22;55583;53.012;6.556;2023-09-30T13:26:03;25.60;99.90
52743;DHT22;55583;53.012;6.556;2023-09-30T13:28:29;25.70;99.90
52743;DHT22;55583;53.012;6.556;2023-09-30T13:30:54;25.50;99.90
52743;DHT22;55583;53.012;6.556;2023-09-30T13:33:20;25.30;99.90
52743;DHT22;55583;53.012;6.556;2023-09-30T13:35:46;24.90;99.90
52743;DHT22;55583;53.012;6.556;2023-09-30T13:38:12;24.80;99.90
52743;DHT22;55583;53.012;6.556;2023-09-30T13:40:37;24.80;99.90
52743;DHT22;55583;53.012;6.556;2023-09-30T13:43:06;25.00;99.90
52743;DHT22;55583;53.012;6.556;2023-09-30T13:45:31;25.30;99.90
52743;DHT22;55583;53.012;6.556;2023-09-30T13:47:57;25.50;99.90
52743;DHT22;55583;53.012;6.556;2023-09-30T13:50:23;25.90;99.90
52743;DHT22;55583;53.012;6.556;2023-09-30T13:52:48;26.00;99.90
52743;DHT22;55583;53.012;6.556;2023-09-30T13:55:14;25.70;99.90
52743;DHT22;55583;53.012;6.556;2023-09-30T13:57:47;25.20;99.90
52743;DHT22;55583;53.012;6.556;2023-09-30T14:00:13;24.90;99.90
52743;DHT22;55583;53.012;6.556;2023-09-30T14:02:39;24.80;99.90
52743;DHT22;55583;53.012;6.556;2023-09-30T14:05:05;25.00;99.90
52743;DHT22;55583;53.012;6.556;2023-09-30T14:07:33;24.90;99.90
52743;DHT22;55583;53.012;6.556;2023-09-30T14:09:58;24.80;99.90
52743;DHT22;55583;53.012;6.556;2023-09-30T14:12:24;24.60;99.90
52743;DHT22;55583;53.012;6.556;2023-09-30T14:14:49;24.70;99.90
52743;DHT22;55583;53.012;6.556;2023-09-30T14:17:17;24.80;99.90
52743;DHT22;55583;53.012;6.556;2023-09-30T14:19:42;24.80;99.90
52743;DHT22;55583;53.012;6.556;2023-09-30T14:22:08;24.70;99.90
52743;DHT22;55583;53.012;6.556;2023-09-30T14:24:34;24.50;99.90
52743;DHT22;55583;53.012;6.556;2023-09-30T14:27:01;24.40;99.90
52743;DHT22;55583;53.012;6.556;2023-09-30T14:29:27;24.40;99.90
52743;DHT22;55583;53.012;6.556;2023-09-30T14:31:53;24.30;99.90
52743;DHT22;55583;53.012;6.556;2023-09-30T14:34:19;24.00;99.90
52743;DHT22;55583;53.012;6.556;2023-09-30T14:36:44;23.80;99.90
52743;DHT22;55583;53.012;6.556;2023-09-30T14:39:10;23.80;99.90
52743;DHT22;55583;53.012;6.556;2023-09-30T14:41:36;23.80;99.90
52743;DHT22;55583;53.012;6.556;2023-09-30T14:44:01;23.90;99.90
52743;DHT22;55583;53.012;6.556;2023-09-30T14:46:33;24.00;99.90
52743;DHT22;55583;53.012;6.556;2023-09-30T14:48:59;24.20;99.90
52743;DHT22;55583;53.012;6.556;2023-09-30T14:51:25;24.10;99.90
52743;DHT22;55583;53.012;6.556;2023-09-30T14:53:51;24.00;99.90
52743;DHT22;55583;53.012;6.556;2023-09-30T14:56:17;23.80;99.90
52743;DHT22;55583;53.012;6.556;2023-09-30T14:58:42;23.60;99.90
52743;DHT22;55583;53.012;6.556;2023-09-30T15:01:08;23.40;99.90
52743;DHT22;55583;53.012;6.556;2023-09-30T15:03:34;23.20;99.90
52743;DHT22;55583;53.012;6.556;2023-09-30T15:06:02;23.10;99.90
52743;DHT22;55583;53.012;6.556;2023-09-30T15:08:29;23.10;99.90
52743;DHT22;55583;53.012;6.556;2023-09-30T15:11:00;23.10;99.90
52743;DHT22;55583;53.012;6.556;2023-09-30T15:13:25;23.10;99.90
52743;DHT22;55583;53.012;6.556;2023-09-30T15:15:51;23.00;99.90
52743;DHT22;55583;53.012;6.556;2023-09-30T15:18:17;23.00;99.90
52743;DHT22;55583;53.012;6.556;2023-09-30T15:20:42;23.00;99.90
52743;DHT22;55583;53.012;6.556;2023-09-30T15:23:09;22.90;99.90
52743;DHT22;55583;53.012;6.556;2023-09-30T15:25:39;22.80;99.90
52743;DHT22;55583;53.012;6.556;2023-09-30T15:28:05;22.60;99.90
52743;DHT22;55583;53.012;6.556;2023-09-30T15:30:30;22.40;99.90
52743;DHT22;55583;53.012;6.556;2023-09-30T15:32:56;22.30;99.90
52743;DHT22;55583;53.012;6.556;2023-09-30T15:35:21;22.10;99.90
52743;DHT22;55583;53.012;6.556;2023-09-30T15:37:47;22.00;99.90
52743;DHT22;55583;53.012;6.556;2023-09-30T15:40:12;21.80;99.90
52743;DHT22;55583;53.012;6.556;2023-09-30T15:42:42;21.70;99.90
52743;DHT22;55583;53.012;6.556;2023-09-30T15:45:08;21.60;99.90